Time;durP1;ratioP1;P1;durP2;ratioP2;P2;SDS_P1;SDS_P2;PMS_P1;PMS_P2;Temp;Humidity;BMP_temperature;BMP_pressure;BME280_temperature;BME280_humidity;BME280_pressure;Samples;Min_cycle;Max_cycle;Signal;HPM_P1;HPM_P2
2022/01/08 00:01:22;;;;;;;;;;;2.80;99.90;;;;;;4975455;28;19921;-86
2022/01/08 00:03:53;;;;;;;;;;;2.80;99.90;;;;;;4975371;28;19922;-87
2022/01/08 00:06:20;;;;;;;;;;;4.40;99.90;;;;;;4976117;28;19922;-86
2022/01/08 00:08:48;;;;;;;;;;;2.80;99.90;;;;;;4979524;28;19981;-86
2022/01/08 00:11:19;;;;;;;;;;;2.90;99.90;;;;;;4976217;28;20009;-86
2022/01/08 00:13:46;;;;;;;;;;;3.40;99.90;;;;;;4980664;28;20240;-86
2022/01/08 00:16:12;;;;;;;;;;;3.10;99.90;;;;;;4980180;28;19922;-86
2022/01/08 00:18:40;;;;;;;;;;;3.20;99.90;;;;;;4976529;28;19992;-86
2022/01/08 00:21:08;;;;;;;;;;;2.90;99.90;;;;;;4975581;28;19922;-86
2022/01/08 00:23:35;;;;;;;;;;;2.90;99.90;;;;;;4975311;28;19968;-87
2022/01/08 00:26:04;;;;;;;;;;;2.80;99.90;;;;;;4975244;28;19970;-86
2022/01/08 00:28:31;;;;;;;;;;;2.80;99.90;;;;;;4974548;28;20013;-86
2022/01/08 00:30:58;;;;;;;;;;;2.80;99.90;;;;;;4974801;28;19968;-87
2022/01/08 00:33:25;;;;;;;;;;;2.70;99.90;;;;;;4975122;28;19922;-86
2022/01/08 00:35:52;;;;;;;;;;;2.70;99.90;;;;;;4976330;28;19930;-87
2022/01/08 00:38:20;;;;;;;;;;;2.70;99.90;;;;;;4978210;28;19930;-87
2022/01/08 00:40:47;;;;;;;;;;;2.70;99.90;;;;;;4978890;28;19938;-87
2022/01/08 00:43:13;;;;;;;;;;;2.90;99.90;;;;;;4978175;28;19969;-86
2022/01/08 00:45:41;;;;;;;;;;;2.80;99.90;;;;;;4977637;28;20407;-85
2022/01/08 00:48:07;;;;;;;;;;;2.70;99.90;;;;;;4978022;28;19929;-87
2022/01/08 00:50:34;;;;;;;;;;;3.50;99.90;;;;;;4977976;28;19922;-87
2022/01/08 00:53:01;;;;;;;;;;;2.10;99.90;;;;;;4978383;28;19921;-86
2022/01/08 00:55:29;;;;;;;;;;;2.80;99.90;;;;;;4978038;28;19926;-87
2022/01/08 00:57:56;;;;;;;;;;;3.10;99.90;;;;;;4978269;28;19922;-87
2022/01/08 01:00:23;;;;;;;;;;;2.80;99.90;;;;;;4977074;28;19966;-86
2022/01/08 01:02:50;;;;;;;;;;;2.90;99.90;;;;;;4977706;28;19945;-86
2022/01/08 01:05:17;;;;;;;;;;;4.00;99.90;;;;;;4977907;28;19926;-88
2022/01/08 01:07:44;;;;;;;;;;;2.80;99.90;;;;;;4978057;28;19922;-87
2022/01/08 01:10:11;;;;;;;;;;;2.90;99.90;;;;;;4977226;28;19968;-87
2022/01/08 01:12:39;;;;;;;;;;;3.00;99.90;;;;;;4977618;28;19965;-87
2022/01/08 01:15:07;;;;;;;;;;;3.00;99.90;;;;;;4977733;28;19922;-87
2022/01/08 01:17:34;;;;;;;;;;;3.00;99.90;;;;;;4977884;28;19922;-87
2022/01/08 01:20:00;;;;;;;;;;;4.20;99.90;;;;;;4977287;28;19976;-87
2022/01/08 01:22:36;;;;;;;;;;;3.10;99.90;;;;;;4977438;28;19933;-87
2022/01/08 01:25:06;;;;;;;;;;;3.90;99.90;;;;;;4977548;28;20341;-87
2022/01/08 01:27:54;;;;;;;;;;;3.10;99.90;;;;;;4977509;28;20391;-86
2022/01/08 01:30:38;;;;;;;;;;;3.20;99.90;;;;;;4977040;28;19961;-87
2022/01/08 01:41:26;;;;;;;;;;;3.20;99.90;;;;;;4977367;28;20002;-86
2022/01/08 01:47:03;;;;;;;;;;;3.50;99.90;;;;;;4977486;28;20016;-85
2022/01/08 01:49:31;;;;;;;;;;;3.50;99.90;;;;;;4977323;28;20365;-87
2022/01/08 01:51:59;;;;;;;;;;;3.90;99.90;;;;;;4977008;28;19930;-86
2022/01/08 01:54:26;;;;;;;;;;;3.80;99.90;;;;;;4977456;28;20292;-87
2022/01/08 01:56:57;;;;;;;;;;;3.80;99.90;;;;;;4977348;28;19921;-87
2022/01/08 01:59:23;;;;;;;;;;;3.50;99.90;;;;;;4976359;28;19929;-86
2022/01/08 02:01:52;;;;;;;;;;;3.70;99.90;;;;;;4976835;28;19984;-87
2022/01/08 02:04:19;;;;;;;;;;;3.60;99.90;;;;;;4973959;28;20027;-86
2022/01/08 02:06:45;;;;;;;;;;;3.50;99.90;;;;;;4981197;28;20376;-87
2022/01/08 02:09:12;;;;;;;;;;;3.60;99.90;;;;;;4992270;28;19968;-87
2022/01/08 02:11:58;;;;;;;;;;;3.60;99.90;;;;;;4976788;28;20348;-86
2022/01/08 02:14:26;;;;;;;;;;;3.60;99.90;;;;;;4979623;28;19945;-85
2022/01/08 02:16:54;;;;;;;;;;;3.60;99.90;;;;;;4985721;28;20045;-85
2022/01/08 02:19:21;;;;;;;;;;;3.80;99.90;;;;;;4984755;28;19929;-85
2022/01/08 02:21:51;;;;;;;;;;;3.60;99.90;;;;;;4987981;28;19926;-87
2022/01/08 02:24:18;;;;;;;;;;;3.80;99.90;;;;;;4978288;28;20315;-86
2022/01/08 02:26:45;;;;;;;;;;;3.80;99.90;;;;;;4976588;28;19926;-86
2022/01/08 02:29:12;;;;;;;;;;;4.00;99.90;;;;;;4976384;28;19976;-86
2022/01/08 02:31:40;;;;;;;;;;;3.70;99.90;;;;;;4976111;28;19926;-87
2022/01/08 02:34:07;;;;;;;;;;;4.30;99.90;;;;;;4976895;28;19984;-87
2022/01/08 02:36:34;;;;;;;;;;;4.10;99.90;;;;;;4976247;28;19922;-87
2022/01/08 02:39:03;;;;;;;;;;;4.30;99.90;;;;;;4975997;28;19969;-87
2022/01/08 02:41:29;;;;;;;;;;;4.30;99.90;;;;;;4976331;28;20365;-86
2022/01/08 02:43:56;;;;;;;;;;;4.10;99.90;;;;;;4976058;28;20399;-86
2022/01/08 02:46:23;;;;;;;;;;;4.10;99.90;;;;;;4976055;28;19929;-87
2022/01/08 02:48:50;;;;;;;;;;;4.40;99.90;;;;;;4976074;28;19926;-86
2022/01/08 02:51:17;;;;;;;;;;;4.00;99.90;;;;;;4975540;28;20424;-85
2022/01/08 02:53:43;;;;;;;;;;;4.00;99.90;;;;;;4976152;28;19926;-86
2022/01/08 02:56:12;;;;;;;;;;;4.10;99.90;;;;;;4976116;28;19922;-86
2022/01/08 02:58:38;;;;;;;;;;;4.30;99.90;;;;;;4976127;28;19926;-87
2022/01/08 03:01:05;;;;;;;;;;;4.30;99.90;;;;;;4975181;28;19969;-87
2022/01/08 03:03:32;;;;;;;;;;;4.40;99.90;;;;;;4976024;28;20281;-85
2022/01/08 03:05:59;;;;;;;;;;;4.40;99.90;;;;;;4975707;28;20327;-86
2022/01/08 03:08:26;;;;;;;;;;;4.50;99.90;;;;;;4976004;28;19922;-86
2022/01/08 03:10:53;;;;;;;;;;;4.40;99.90;;;;;;4975293;28;19964;-86
2022/01/08 03:13:21;;;;;;;;;;;4.40;99.90;;;;;;4975655;28;19977;-86
2022/01/08 03:15:48;;;;;;;;;;;4.60;99.90;;;;;;4975322;28;19953;-87
2022/01/08 03:18:16;;;;;;;;;;;4.50;99.90;;;;;;4976035;28;19922;-85
2022/01/08 03:20:48;;;;;;;;;;;4.30;99.90;;;;;;4975603;28;20074;-86
2022/01/08 03:23:20;;;;;;;;;;;4.50;99.90;;;;;;4975557;28;19922;-86
2022/01/08 03:25:47;;;;;;;;;;;4.50;99.90;;;;;;4975688;28;19944;-86
2022/01/08 03:28:14;;;;;;;;;;;4.40;99.90;;;;;;4975150;28;20384;-87
2022/01/08 03:30:42;;;;;;;;;;;4.70;99.90;;;;;;4975259;28;19973;-88
2022/01/08 03:33:09;;;;;;;;;;;4.60;99.90;;;;;;4975911;28;19921;-86
2022/01/08 03:35:38;;;;;;;;;;;4.90;99.90;;;;;;4975421;28;19950;-88
2022/01/08 03:38:05;;;;;;;;;;;4.50;99.90;;;;;;4975715;28;19922;-87
2022/01/08 03:40:32;;;;;;;;;;;4.50;99.90;;;;;;4975545;28;20269;-87
2022/01/08 03:42:58;;;;;;;;;;;4.70;99.90;;;;;;4975426;28;19973;-86
2022/01/08 03:45:25;;;;;;;;;;;4.70;99.90;;;;;;4975511;28;19968;-87
2022/01/08 03:50:34;;;;;;;;;;;4.60;99.90;;;;;;4972106;28;19965;-87
2022/01/08 03:53:01;;;;;;;;;;;4.50;99.90;;;;;;4974146;28;20380;-87
2022/01/08 03:55:28;;;;;;;;;;;4.60;99.90;;;;;;4975432;28;20300;-86
2022/01/08 03:57:55;;;;;;;;;;;4.60;99.90;;;;;;4975253;28;19922;-87
2022/01/08 04:00:21;;;;;;;;;;;4.60;99.90;;;;;;4974632;28;20339;-87
2022/01/08 04:02:48;;;;;;;;;;;4.70;99.90;;;;;;4972131;28;19995;-87
2022/01/08 04:05:16;;;;;;;;;;;4.80;99.90;;;;;;4975573;28;19922;-86
2022/01/08 04:07:43;;;;;;;;;;;4.90;99.90;;;;;;4974856;28;19928;-87
2022/01/08 04:10:10;;;;;;;;;;;4.80;99.90;;;;;;4975273;28;19945;-87
2022/01/08 04:12:41;;;;;;;;;;;4.80;99.90;;;;;;4979007;28;20389;-87
2022/01/08 04:15:30;;;;;;;;;;;4.90;99.90;;;;;;4978550;28;19926;-87
2022/01/08 04:17:56;;;;;;;;;;;4.00;99.90;;;;;;4978704;28;20020;-88
2022/01/08 04:20:24;;;;;;;;;;;4.90;99.90;;;;;;4982596;28;19922;-86
2022/01/08 04:22:51;;;;;;;;;;;4.90;99.90;;;;;;4982584;28;19926;-86
2022/01/08 04:25:19;;;;;;;;;;;5.00;99.90;;;;;;4982713;28;19969;-86
2022/01/08 04:27:46;;;;;;;;;;;4.70;99.90;;;;;;4980426;28;19968;-86
2022/01/08 04:30:13;;;;;;;;;;;4.50;99.90;;;;;;4978184;28;20368;-87
2022/01/08 04:32:40;;;;;;;;;;;4.90;99.90;;;;;;4978561;28;19922;-87
2022/01/08 04:35:07;;;;;;;;;;;4.90;99.90;;;;;;4978326;28;20012;-87
2022/01/08 04:37:36;;;;;;;;;;;3.90;99.90;;;;;;4978349;28;20369;-87
2022/01/08 04:40:02;;;;;;;;;;;4.80;99.90;;;;;;4978242;28;19984;-87
2022/01/08 04:42:29;;;;;;;;;;;4.90;99.90;;;;;;4978188;28;19926;-87
2022/01/08 04:44:56;;;;;;;;;;;5.10;99.90;;;;;;4978377;28;20282;-88
2022/01/08 04:47:23;;;;;;;;;;;5.40;99.90;;;;;;4978322;28;20324;-88
2022/01/08 04:49:49;;;;;;;;;;;4.90;99.90;;;;;;4977754;28;20031;-86
2022/01/08 04:52:32;;;;;;;;;;;6.60;99.90;;;;;;5091380;27;19920;-87
2022/01/08 04:54:59;;;;;;;;;;;5.10;99.90;;;;;;5085552;28;19932;-86
2022/01/08 04:57:26;;;;;;;;;;;5.40;99.90;;;;;;5074404;28;19968;-87
2022/01/08 04:59:52;;;;;;;;;;;5.10;99.90;;;;;;5071413;28;19928;-87
2022/01/08 05:02:19;;;;;;;;;;;5.00;99.90;;;;;;5071319;28;19925;-86
2022/01/08 05:04:46;;;;;;;;;;;5.00;99.90;;;;;;5070855;28;19925;-86
2022/01/08 05:07:13;;;;;;;;;;;5.10;99.90;;;;;;5071132;28;19929;-86
2022/01/08 05:09:41;;;;;;;;;;;5.10;99.90;;;;;;5072242;28;20325;-86
2022/01/08 05:12:08;;;;;;;;;;;5.10;99.90;;;;;;5090687;28;19924;-89
2022/01/08 05:14:35;;;;;;;;;;;5.00;99.90;;;;;;5091283;28;19924;-87
2022/01/08 05:17:02;;;;;;;;;;;5.10;99.90;;;;;;5091086;28;20378;-86
2022/01/08 05:19:40;;;;;;;;;;;5.00;99.90;;;;;;5070070;28;19932;-86
2022/01/08 05:22:09;;;;;;;;;;;5.10;99.90;;;;;;5056644;28;20417;-86
2022/01/08 05:24:36;;;;;;;;;;;5.10;99.90;;;;;;5070200;28;20019;-87
2022/01/08 05:27:06;;;;;;;;;;;5.10;99.90;;;;;;5070396;28;20325;-87
2022/01/08 05:29:33;;;;;;;;;;;5.50;99.90;;;;;;5069947;28;20005;-88
2022/01/08 05:32:00;;;;;;;;;;;5.30;99.90;;;;;;5069753;28;19925;-87
2022/01/08 05:34:27;;;;;;;;;;;5.20;99.90;;;;;;5070569;28;19924;-87
2022/01/08 05:36:54;;;;;;;;;;;5.40;99.90;;;;;;5070719;28;19929;-87
2022/01/08 05:39:20;;;;;;;;;;;5.30;99.90;;;;;;5070362;28;19990;-87
2022/01/08 05:41:47;;;;;;;;;;;5.40;99.90;;;;;;5070498;28;20428;-86
2022/01/08 05:44:15;;;;;;;;;;;5.30;99.90;;;;;;5070363;28;19960;-87
2022/01/08 05:46:44;;;;;;;;;;;5.40;99.90;;;;;;5070337;28;19978;-87
2022/01/08 05:49:12;;;;;;;;;;;5.50;99.90;;;;;;5069900;28;19925;-87
2022/01/08 05:51:39;;;;;;;;;;;5.50;99.90;;;;;;5069934;28;20375;-86
2022/01/08 05:54:06;;;;;;;;;;;5.60;99.90;;;;;;5069769;28;20341;-86
2022/01/08 05:56:32;;;;;;;;;;;5.60;99.90;;;;;;5069293;28;20353;-87
2022/01/08 05:58:59;;;;;;;;;;;5.60;99.90;;;;;;5070302;28;19998;-87
2022/01/08 06:01:27;;;;;;;;;;;5.60;99.90;;;;;;5069814;28;19986;-87
2022/01/08 06:03:54;;;;;;;;;;;5.60;99.90;;;;;;5055761;28;19925;-88
2022/01/08 06:06:21;;;;;;;;;;;5.70;99.90;;;;;;5056519;28;19925;-86
2022/01/08 06:08:47;;;;;;;;;;;5.70;99.90;;;;;;5054016;28;19976;-87
2022/01/08 06:11:14;;;;;;;;;;;5.80;99.90;;;;;;5067932;28;19924;-87
2022/01/08 06:13:41;;;;;;;;;;;5.80;99.90;;;;;;5077195;28;20329;-86
2022/01/08 06:16:08;;;;;;;;;;;5.90;99.90;;;;;;5076674;28;20362;-86
2022/01/08 06:18:36;;;;;;;;;;;6.00;99.90;;;;;;5072367;28;19925;-86
2022/01/08 06:21:04;;;;;;;;;;;6.00;99.90;;;;;;5066718;28;19928;-87
2022/01/08 06:23:30;;;;;;;;;;;6.00;99.90;;;;;;5081182;28;20387;-87
2022/01/08 06:25:57;;;;;;;;;;;6.10;99.90;;;;;;5081063;28;19924;-87
2022/01/08 06:28:24;;;;;;;;;;;6.00;99.90;;;;;;5081641;28;20345;-86
2022/01/08 06:30:52;;;;;;;;;;;6.10;99.90;;;;;;5078667;28;19925;-86
2022/01/08 06:33:19;;;;;;;;;;;6.20;99.90;;;;;;5076812;28;19931;-87
2022/01/08 06:35:48;;;;;;;;;;;6.10;99.90;;;;;;5076815;28;19974;-87
2022/01/08 06:38:15;;;;;;;;;;;6.10;99.90;;;;;;5076530;28;19925;-87
2022/01/08 06:40:42;;;;;;;;;;;6.10;99.90;;;;;;5068948;28;19932;-88
2022/01/08 06:43:09;;;;;;;;;;;6.10;99.90;;;;;;5056079;28;20329;-87
2022/01/08 06:45:35;;;;;;;;;;;6.20;99.90;;;;;;5056536;28;19932;-87
2022/01/08 06:48:04;;;;;;;;;;;6.20;99.90;;;;;;5056556;28;19925;-87
2022/01/08 06:50:31;;;;;;;;;;;6.30;99.90;;;;;;5059515;28;20020;-88
2022/01/08 06:52:59;;;;;;;;;;;6.40;99.90;;;;;;5066218;28;19924;-86
2022/01/08 06:55:26;;;;;;;;;;;6.50;99.90;;;;;;5075816;28;20009;-87
2022/01/08 06:57:54;;;;;;;;;;;6.50;99.90;;;;;;5056665;28;19978;-87
2022/01/08 07:00:21;;;;;;;;;;;6.50;99.90;;;;;;5059167;28;20019;-87
2022/01/08 07:02:48;;;;;;;;;;;6.50;99.90;;;;;;5076097;28;19970;-87
2022/01/08 07:05:15;;;;;;;;;;;6.80;99.90;;;;;;5076623;28;19924;-86
2022/01/08 07:07:41;;;;;;;;;;;6.50;99.90;;;;;;5076070;28;19924;-87
2022/01/08 07:10:10;;;;;;;;;;;6.70;99.90;;;;;;5070609;28;19928;-86
2022/01/08 07:12:37;;;;;;;;;;;6.40;99.90;;;;;;5055965;28;19925;-86
2022/01/08 07:15:04;;;;;;;;;;;6.40;99.90;;;;;;5058457;28;19928;-86
2022/01/08 07:17:31;;;;;;;;;;;6.40;99.90;;;;;;5059029;28;19932;-87
2022/01/08 07:19:58;;;;;;;;;;;6.60;99.90;;;;;;5055929;28;19924;-87
2022/01/08 07:22:24;;;;;;;;;;;6.60;99.90;;;;;;5057438;28;20337;-86
2022/01/08 07:24:51;;;;;;;;;;;6.60;99.90;;;;;;5075803;28;19924;-87
2022/01/08 07:27:19;;;;;;;;;;;6.70;99.90;;;;;;5067122;28;19928;-87
2022/01/08 07:29:46;;;;;;;;;;;6.70;99.90;;;;;;5071965;28;19924;-87
2022/01/08 07:32:13;;;;;;;;;;;6.70;99.90;;;;;;5075473;28;19950;-90
2022/01/08 07:34:40;;;;;;;;;;;6.70;99.90;;;;;;5075818;28;19925;-87
2022/01/08 07:37:07;;;;;;;;;;;6.70;99.90;;;;;;5075496;28;19925;-86
2022/01/08 07:39:33;;;;;;;;;;;6.80;99.90;;;;;;5060764;28;19971;-87
2022/01/08 07:42:00;;;;;;;;;;;6.80;99.90;;;;;;5075213;28;19924;-86
2022/01/08 07:44:28;;;;;;;;;;;6.80;99.90;;;;;;5067700;28;19932;-89
2022/01/08 07:46:57;;;;;;;;;;;6.80;99.90;;;;;;5072194;28;19928;-89
2022/01/08 07:49:23;;;;;;;;;;;6.80;99.90;;;;;;5075585;28;19924;-88
2022/01/08 07:51:50;;;;;;;;;;;6.80;99.90;;;;;;5068826;28;20283;-87
2022/01/08 07:54:17;;;;;;;;;;;6.90;99.90;;;;;;5055356;28;20375;-89
2022/01/08 07:56:47;;;;;;;;;;;6.90;99.90;;;;;;5055703;28;19932;-88
2022/01/08 07:59:14;;;;;;;;;;;7.00;99.90;;;;;;5073251;28;20013;-88
2022/01/08 08:01:42;;;;;;;;;;;7.00;99.90;;;;;;5069270;28;19994;-88
2022/01/08 08:04:09;;;;;;;;;;;7.00;99.90;;;;;;5041110;28;19929;-88
2022/01/08 08:06:43;;;;;;;;;;;7.10;99.90;;;;;;5074519;28;19970;-88
2022/01/08 08:09:09;;;;;;;;;;;7.20;99.90;;;;;;5074555;28;20378;-88
2022/01/08 08:11:36;;;;;;;;;;;7.10;99.90;;;;;;5058740;28;19929;-87
2022/01/08 08:14:04;;;;;;;;;;;7.20;99.90;;;;;;5056277;28;19928;-88
2022/01/08 08:16:30;;;;;;;;;;;7.20;99.90;;;;;;5074605;28;19925;-87
2022/01/08 08:18:59;;;;;;;;;;;7.30;99.90;;;;;;5073025;28;19925;-87
2022/01/08 08:21:25;;;;;;;;;;;7.30;99.90;;;;;;5065844;28;19932;-88
2022/01/08 08:23:52;;;;;;;;;;;7.30;99.90;;;;;;5074150;28;19986;-88
2022/01/08 08:26:19;;;;;;;;;;;7.80;99.90;;;;;;5077244;28;19924;-86
2022/01/08 08:28:46;;;;;;;;;;;7.40;99.90;;;;;;5079161;28;19924;-87
2022/01/08 08:31:12;;;;;;;;;;;7.30;99.90;;;;;;5063809;28;19928;-87
2022/01/08 08:33:39;;;;;;;;;;;7.40;99.90;;;;;;5057401;28;19978;-87
2022/01/08 08:36:08;;;;;;;;;;;7.60;99.90;;;;;;5058410;28;19924;-88
2022/01/08 08:38:34;;;;;;;;;;;7.40;99.90;;;;;;5054119;28;19932;-88
2022/01/08 08:41:01;;;;;;;;;;;7.40;99.90;;;;;;5053782;28;20379;-87
2022/01/08 08:43:28;;;;;;;;;;;7.50;99.90;;;;;;5054002;28;20354;-87
2022/01/08 08:45:55;;;;;;;;;;;7.50;99.90;;;;;;5069491;28;19981;-87
2022/01/08 08:48:22;;;;;;;;;;;7.50;99.90;;;;;;5075631;28;20382;-87
2022/01/08 08:50:48;;;;;;;;;;;7.50;99.90;;;;;;5060244;28;19924;-87
2022/01/08 08:53:17;;;;;;;;;;;7.50;99.90;;;;;;5053753;28;20363;-87
2022/01/08 08:55:43;;;;;;;;;;;7.50;99.90;;;;;;5054261;28;19940;-87
2022/01/08 08:58:10;;;;;;;;;;;7.60;99.90;;;;;;5054280;28;19925;-87
2022/01/08 09:00:37;;;;;;;;;;;7.60;99.90;;;;;;5065114;28;19925;-87
2022/01/08 09:03:04;;;;;;;;;;;7.70;99.90;;;;;;5062931;28;19986;-87
2022/01/08 09:05:31;;;;;;;;;;;7.70;99.90;;;;;;5054050;28;19971;-87
2022/01/08 09:08:01;;;;;;;;;;;7.70;99.90;;;;;;5054173;28;19971;-87
2022/01/08 09:10:29;;;;;;;;;;;7.70;99.90;;;;;;5054108;28;20307;-87
2022/01/08 09:12:56;;;;;;;;;;;7.70;99.90;;;;;;5063346;28;20427;-87
2022/01/08 09:15:25;;;;;;;;;;;7.70;99.90;;;;;;5062456;28;19924;-87
2022/01/08 09:17:52;;;;;;;;;;;7.70;99.90;;;;;;5054098;28;19932;-88
2022/01/08 09:20:19;;;;;;;;;;;7.80;99.90;;;;;;5061575;28;19924;-87
2022/01/08 09:22:46;;;;;;;;;;;7.80;99.90;;;;;;5074317;28;19925;-87
2022/01/08 09:25:12;;;;;;;;;;;7.90;99.90;;;;;;5065101;28;19925;-88
2022/01/08 09:27:41;;;;;;;;;;;8.00;99.90;;;;;;5054536;28;19986;-87
2022/01/08 09:30:08;;;;;;;;;;;7.90;99.90;;;;;;5060099;28;20324;-88
2022/01/08 09:32:35;;;;;;;;;;;7.80;99.90;;;;;;5067436;28;20391;-87
2022/01/08 09:35:02;;;;;;;;;;;7.80;99.90;;;;;;5061879;28;19954;-88
2022/01/08 09:37:29;;;;;;;;;;;7.90;99.90;;;;;;5074812;28;19947;-88
2022/01/08 09:39:56;;;;;;;;;;;7.80;99.90;;;;;;5068545;28;19928;-87
2022/01/08 09:42:22;;;;;;;;;;;7.90;99.90;;;;;;5060778;28;19929;-88
2022/01/08 09:44:51;;;;;;;;;;;8.00;99.90;;;;;;5072746;28;20406;-88
2022/01/08 09:47:17;;;;;;;;;;;7.80;99.90;;;;;;5076263;28;20331;-88
2022/01/08 09:49:44;;;;;;;;;;;8.00;99.90;;;;;;5065349;28;19951;-88
2022/01/08 09:52:12;;;;;;;;;;;8.00;99.90;;;;;;5056979;28;19928;-87
2022/01/08 09:54:40;;;;;;;;;;;8.00;99.90;;;;;;5060378;28;19931;-86
2022/01/08 09:57:06;;;;;;;;;;;8.10;99.90;;;;;;5064381;28;19979;-86
2022/01/08 09:59:33;;;;;;;;;;;8.10;99.90;;;;;;5063956;28;20440;-88
2022/01/08 10:02:02;;;;;;;;;;;8.10;99.90;;;;;;5063352;28;19932;-88
2022/01/08 10:04:29;;;;;;;;;;;8.20;99.90;;;;;;5067203;28;20302;-89
2022/01/08 10:07:11;;;;;;;;;;;8.30;99.90;;;;;;5057051;28;19932;-89
2022/01/08 10:09:38;;;;;;;;;;;8.30;99.90;;;;;;5057730;28;20371;-88
2022/01/08 10:12:05;;;;;;;;;;;8.30;99.90;;;;;;5056968;28;19979;-88
2022/01/08 10:17:13;;;;;;;;;;;8.30;99.90;;;;;;5066504;28;19977;-89
2022/01/08 10:17:34;;;;;;;;;;;8.40;99.90;;;;;;5078739;28;20343;-88
2022/01/08 10:20:03;;;;;;;;;;;8.40;99.90;;;;;;5075674;28;20028;-88
2022/01/08 10:22:29;;;;;;;;;;;8.40;99.90;;;;;;5076856;28;19924;-87
2022/01/08 10:25:12;;;;;;;;;;;8.60;99.90;;;;;;5074016;28;19924;-88
2022/01/08 10:27:38;;;;;;;;;;;8.40;99.90;;;;;;5059808;28;20370;-88
2022/01/08 10:30:06;;;;;;;;;;;8.70;99.90;;;;;;5061931;28;19940;-88
2022/01/08 10:32:33;;;;;;;;;;;8.50;99.90;;;;;;5058272;28;19924;-87
2022/01/08 10:34:59;;;;;;;;;;;8.50;99.90;;;;;;5066344;28;20406;-87
2022/01/08 10:37:28;;;;;;;;;;;8.50;99.90;;;;;;5055805;28;19978;-88
2022/01/08 10:39:55;;;;;;;;;;;8.50;99.90;;;;;;5056782;28;19925;-87
2022/01/08 10:42:24;;;;;;;;;;;9.00;99.90;;;;;;5056263;28;19949;-87
2022/01/08 10:44:51;;;;;;;;;;;8.60;99.90;;;;;;5067326;28;19931;-87
2022/01/08 10:47:19;;;;;;;;;;;8.60;99.90;;;;;;5055960;28;19986;-86
2022/01/08 10:49:47;;;;;;;;;;;8.60;99.90;;;;;;5057818;28;19933;-88
2022/01/08 10:52:15;;;;;;;;;;;8.60;99.90;;;;;;5056292;28;19925;-87
2022/01/08 10:54:44;;;;;;;;;;;8.60;99.90;;;;;;5065893;28;19947;-87
2022/01/08 10:57:12;;;;;;;;;;;8.60;99.90;;;;;;5066979;28;19931;-86
2022/01/08 10:59:40;;;;;;;;;;;8.60;99.90;;;;;;5076544;28;19925;-86
2022/01/08 11:02:07;;;;;;;;;;;8.70;99.90;;;;;;5075782;28;19928;-86
2022/01/08 11:04:35;;;;;;;;;;;8.30;99.90;;;;;;5067823;28;19944;-86
2022/01/08 11:07:04;;;;;;;;;;;7.90;99.90;;;;;;5073907;28;19924;-87
2022/01/08 11:09:31;;;;;;;;;;;7.70;99.90;;;;;;5075496;28;19928;-87
2022/01/08 11:12:01;;;;;;;;;;;7.60;99.90;;;;;;5075698;28;19931;-87
2022/01/08 11:17:15;;;;;;;;;;;7.70;99.90;;;;;;5056131;28;20404;-89
2022/01/08 11:19:43;;;;;;;;;;;7.70;99.90;;;;;;5056847;28;19948;-88
2022/01/08 11:22:12;;;;;;;;;;;7.80;99.90;;;;;;5055585;28;19925;-88
2022/01/08 11:24:40;;;;;;;;;;;7.80;99.90;;;;;;5058160;28;19925;-86
2022/01/08 11:27:09;;;;;;;;;;;6.60;99.90;;;;;;5055872;28;19975;-87
2022/01/08 11:29:37;;;;;;;;;;;7.80;99.90;;;;;;5055583;28;20046;-88
2022/01/08 11:32:05;;;;;;;;;;;8.00;99.90;;;;;;5056342;28;19932;-89
2022/01/08 11:34:33;;;;;;;;;;;7.80;99.90;;;;;;5062440;28;20286;-88
2022/01/08 11:37:00;;;;;;;;;;;7.90;99.90;;;;;;5074811;28;20333;-88
2022/01/08 11:39:28;;;;;;;;;;;6.10;99.90;;;;;;5075729;28;19925;-89
2022/01/08 11:41:56;;;;;;;;;;;7.80;99.90;;;;;;5076514;28;20382;-88
2022/01/08 11:44:25;;;;;;;;;;;7.80;99.90;;;;;;5062122;28;19924;-88
2022/01/08 11:46:52;;;;;;;;;;;7.80;99.90;;;;;;5075768;28;19946;-89
2022/01/08 11:49:19;;;;;;;;;;;7.80;99.90;;;;;;5075985;28;19925;-86
2022/01/08 11:51:46;;;;;;;;;;;7.80;99.90;;;;;;5075619;28;19998;-89
2022/01/08 11:54:14;;;;;;;;;;;7.80;99.90;;;;;;5070780;28;20004;-86
2022/01/08 11:56:41;;;;;;;;;;;7.70;99.90;;;;;;5045854;28;20393;-89
2022/01/08 11:59:08;;;;;;;;;;;7.70;99.90;;;;;;5052392;28;19925;-88
2022/01/08 12:01:40;;;;;;;;;;;7.70;99.90;;;;;;5055243;28;20324;-89
2022/01/08 12:04:07;;;;;;;;;;;7.70;99.90;;;;;;5055738;28;19925;-88
2022/01/08 12:06:36;;;;;;;;;;;7.70;99.90;;;;;;5055082;28;20337;-89
2022/01/08 12:09:23;;;;;;;;;;;7.60;99.90;;;;;;5054907;28;19925;-90
2022/01/08 12:11:55;;;;;;;;;;;7.60;99.90;;;;;;5056227;28;19963;-89
2022/01/08 12:14:23;;;;;;;;;;;9.20;99.90;;;;;;5056496;28;20436;-90
2022/01/08 12:16:52;;;;;;;;;;;7.70;99.90;;;;;;5049103;28;20295;-89
2022/01/08 12:19:31;;;;;;;;;;;7.70;99.90;;;;;;5038762;28;20363;-91
2022/01/08 12:21:58;;;;;;;;;;;7.60;99.90;;;;;;5042041;28;20016;-89
2022/01/08 12:24:35;;;;;;;;;;;7.60;99.90;;;;;;5041959;28;19925;-88
2022/01/08 12:27:03;;;;;;;;;;;7.60;99.90;;;;;;5039208;28;19932;-89
2022/01/08 12:29:33;;;;;;;;;;;7.40;99.90;;;;;;5036215;28;19925;-88
2022/01/08 12:32:16;;;;;;;;;;;7.60;99.90;;;;;;5035626;28;19925;-90
2022/01/08 12:34:48;;;;;;;;;;;7.70;99.90;;;;;;5035015;28;19931;-89
2022/01/08 12:37:15;;;;;;;;;;;7.70;99.90;;;;;;5035445;28;19976;-90
2022/01/08 12:39:47;;;;;;;;;;;7.80;99.90;;;;;;5037539;28;19932;-89
2022/01/08 12:42:33;;;;;;;;;;;7.90;99.90;;;;;;5035857;28;19925;-90
2022/01/08 12:45:00;;;;;;;;;;;8.00;99.90;;;;;;5038408;28;19968;-89
2022/01/08 12:47:39;;;;;;;;;;;8.00;99.90;;;;;;5037022;28;19933;-89
2022/01/08 12:50:25;;;;;;;;;;;8.00;99.90;;;;;;5035876;28;19929;-88
2022/01/08 12:53:11;;;;;;;;;;;8.10;99.90;;;;;;5036161;28;19925;-89
2022/01/08 12:55:39;;;;;;;;;;;8.20;99.90;;;;;;5038687;28;19925;-88
2022/01/08 12:58:12;;;;;;;;;;;8.10;99.90;;;;;;5055401;28;20286;-89
2022/01/08 13:00:52;;;;;;;;;;;8.00;99.90;;;;;;5056581;28;19924;-88
2022/01/08 13:03:21;;;;;;;;;;;8.00;99.90;;;;;;5056228;28;19925;-89
2022/01/08 13:05:49;;;;;;;;;;;8.00;99.90;;;;;;5055556;28;19925;-89
2022/01/08 13:08:22;;;;;;;;;;;8.20;99.90;;;;;;5057252;28;19983;-89
2022/01/08 13:10:49;;;;;;;;;;;8.00;99.90;;;;;;5054946;28;19978;-88
2022/01/08 13:13:15;;;;;;;;;;;8.20;99.90;;;;;;5057129;28;19976;-89
2022/01/08 13:15:49;;;;;;;;;;;7.90;99.90;;;;;;5060363;28;19925;-89
2022/01/08 13:18:16;;;;;;;;;;;7.90;99.90;;;;;;5065085;28;19924;-90
2022/01/08 13:20:44;;;;;;;;;;;8.20;99.90;;;;;;5062635;28;20020;-92
2022/01/08 13:23:13;;;;;;;;;;;8.20;99.90;;;;;;5062788;28;19924;-91
2022/01/08 13:25:39;;;;;;;;;;;8.10;99.90;;;;;;5063278;28;19969;-91
2022/01/08 13:28:06;;;;;;;;;;;7.90;99.90;;;;;;5056073;28;20379;-89
2022/01/08 13:30:36;;;;;;;;;;;8.00;99.90;;;;;;5060743;28;19925;-88
2022/01/08 13:33:04;;;;;;;;;;;8.00;99.90;;;;;;5059468;28;19925;-91
2022/01/08 13:35:31;;;;;;;;;;;8.10;99.90;;;;;;5073081;28;19929;-89
2022/01/08 13:37:58;;;;;;;;;;;8.20;99.90;;;;;;5083582;28;19935;-88
2022/01/08 13:40:28;;;;;;;;;;;8.20;99.90;;;;;;5077229;28;19924;-87
2022/01/08 13:42:55;;;;;;;;;;;8.20;99.90;;;;;;5080008;28;19959;-90
2022/01/08 13:45:23;;;;;;;;;;;8.20;99.90;;;;;;5056724;28;19980;-89
2022/01/08 13:47:51;;;;;;;;;;;8.20;99.90;;;;;;5058739;28;19955;-89
2022/01/08 13:50:22;;;;;;;;;;;8.20;99.90;;;;;;5061883;28;19925;-88
2022/01/08 13:52:53;;;;;;;;;;;8.20;99.90;;;;;;5065627;28;19946;-89
2022/01/08 13:55:21;;;;;;;;;;;8.20;99.90;;;;;;5058198;28;19928;-89
2022/01/08 13:57:53;;;;;;;;;;;8.10;99.90;;;;;;5067347;28;19943;-87
2022/01/08 14:00:22;;;;;;;;;;;8.20;99.90;;;;;;5070314;28;19936;-88
2022/01/08 14:02:54;;;;;;;;;;;8.20;99.90;;;;;;5070262;28;20302;-90
2022/01/08 14:05:21;;;;;;;;;;;7.50;99.90;;;;;;5060040;28;19935;-87
2022/01/08 14:07:48;;;;;;;;;;;8.30;99.90;;;;;;5059704;28;20306;-88
2022/01/08 14:10:15;;;;;;;;;;;8.20;99.90;;;;;;5064265;28;20276;-88
2022/01/08 14:12:57;;;;;;;;;;;8.20;99.90;;;;;;5064523;28;19928;-89
2022/01/08 14:15:27;;;;;;;;;;;8.20;99.90;;;;;;5041657;28;19925;-90
2022/01/08 14:17:54;;;;;;;;;;;8.30;99.90;;;;;;5084901;28;19924;-88
2022/01/08 14:20:23;;;;;;;;;;;8.30;99.90;;;;;;5068327;28;19928;-89
2022/01/08 14:22:50;;;;;;;;;;;8.40;99.90;;;;;;5075582;28;20319;-90
2022/01/08 14:25:29;;;;;;;;;;;8.30;99.90;;;;;;5079446;28;19928;-90
2022/01/08 14:27:56;;;;;;;;;;;8.30;99.90;;;;;;5070415;28;19932;-91
2022/01/08 14:30:39;;;;;;;;;;;8.40;99.90;;;;;;5061724;28;19939;-90
2022/01/08 14:33:14;;;;;;;;;;;8.50;99.90;;;;;;5061374;28;20333;-91
2022/01/08 14:38:49;;;;;;;;;;;8.20;99.90;;;;;;5039193;28;19925;-92
2022/01/08 14:46:53;;;;;;;;;;;8.30;99.90;;;;;;5058086;28;19969;-91
2022/01/08 14:49:22;;;;;;;;;;;8.00;99.90;;;;;;5061069;28;19990;-90
2022/01/08 14:51:52;;;;;;;;;;;8.00;99.90;;;;;;5058419;28;19924;-91
2022/01/08 14:54:25;;;;;;;;;;;9.90;99.90;;;;;;5061531;28;19992;-92
2022/01/08 14:56:52;;;;;;;;;;;8.00;99.90;;;;;;5061281;28;19932;-92
2022/01/08 14:59:19;;;;;;;;;;;8.30;99.90;;;;;;5061675;28;19928;-91
2022/01/08 15:01:46;;;;;;;;;;;8.20;99.90;;;;;;5063421;28;19935;-89
2022/01/08 15:04:13;;;;;;;;;;;7.90;99.90;;;;;;5058808;28;20351;-92